sensor_id;sensor_type;location;lat;lon;timestamp;pressure;altitude;pressure_sealevel;temperature;humidity
74310;BME280;62722;51.142;17.052;2022-12-07T00:02:17;99983.44;;;2.50;96.04
74310;BME280;62722;51.142;17.052;2022-12-07T00:04:48;99981.16;;;2.41;96.72
74310;BME280;62722;51.142;17.052;2022-12-07T00:07:18;99981.91;;;2.44;96.17
74310;BME280;62722;51.142;17.052;2022-12-07T00:09:49;99976.81;;;2.41;96.71
74310;BME280;62722;51.142;17.052;2022-12-07T00:12:17;99976.59;;;2.48;96.24
74310;BME280;62722;51.142;17.052;2022-12-07T00:14:46;99968.72;;;2.49;96.29
74310;BME280;62722;51.142;17.052;2022-12-07T00:17:14;99968.69;;;2.51;96.57
74310;BME280;62722;51.142;17.052;2022-12-07T00:19:41;99976.50;;;2.51;96.37
74310;BME280;62722;51.142;17.052;2022-12-07T00:22:08;99966.94;;;2.51;96.18
74310;BME280;62722;51.142;17.052;2022-12-07T00:24:35;99975.63;;;2.50;96.20
74310;BME280;62722;51.142;17.052;2022-12-07T00:27:04;99965.22;;;2.50;96.36
74310;BME280;62722;51.142;17.052;2022-12-07T00:29:31;99959.19;;;2.48;96.20
74310;BME280;62722;51.142;17.052;2022-12-07T00:32:01;99965.22;;;2.50;96.22
74310;BME280;62722;51.142;17.052;2022-12-07T00:34:28;99955.81;;;2.46;96.37
74310;BME280;62722;51.142;17.052;2022-12-07T00:36:56;99956.59;;;2.48;96.95
74310;BME280;62722;51.142;17.052;2022-12-07T00:39:23;99957.56;;;2.45;96.42
74310;BME280;62722;51.142;17.052;2022-12-07T00:41:50;99960.22;;;2.44;96.13
74310;BME280;62722;51.142;17.052;2022-12-07T00:44:19;99959.28;;;2.47;96.72
74310;BME280;62722;51.142;17.052;2022-12-07T00:46:46;99954.91;;;2.47;95.57
74310;BME280;62722;51.142;17.052;2022-12-07T00:49:13;99960.13;;;2.47;95.23
74310;BME280;62722;51.142;17.052;2022-12-07T00:51:41;99953.09;;;2.49;95.70
74310;BME280;62722;51.142;17.052;2022-12-07T00:54:08;99960.06;;;2.49;95.85
74310;BME280;62722;51.142;17.052;2022-12-07T00:56:35;99958.41;;;2.46;95.09
74310;BME280;62722;51.142;17.052;2022-12-07T00:59:03;99954.91;;;2.47;96.30
74310;BME280;62722;51.142;17.052;2022-12-07T01:01:34;99961.16;;;2.43;95.85
74310;BME280;62722;51.142;17.052;2022-12-07T01:04:02;99966.22;;;2.46;96.42
74310;BME280;62722;51.142;17.052;2022-12-07T01:06:30;99965.44;;;2.44;95.81
74310;BME280;62722;51.142;17.052;2022-12-07T01:08:57;99969.72;;;2.45;95.91
74310;BME280;62722;51.142;17.052;2022-12-07T01:11:28;99961.03;;;2.46;95.34
74310;BME280;62722;51.142;17.052;2022-12-07T01:13:57;99955.97;;;2.41;94.80
74310;BME280;62722;51.142;17.052;2022-12-07T01:16:28;99965.44;;;2.44;95.42
74310;BME280;62722;51.142;17.052;2022-12-07T01:18:57;99956.84;;;2.42;95.69
74310;BME280;62722;51.142;17.052;2022-12-07T01:21:27;99955.97;;;2.41;95.51
74310;BME280;62722;51.142;17.052;2022-12-07T01:23:56;99949.19;;;2.37;94.97
74310;BME280;62722;51.142;17.052;2022-12-07T01:26:25;99956.09;;;2.38;95.93
74310;BME280;62722;51.142;17.052;2022-12-07T01:28:52;99950.78;;;2.41;95.40
74310;BME280;62722;51.142;17.052;2022-12-07T01:31:22;99950.03;;;2.38;94.87
74310;BME280;62722;51.142;17.052;2022-12-07T01:33:51;99948.31;;;2.37;95.55
74310;BME280;62722;51.142;17.052;2022-12-07T01:36:21;99952.53;;;2.41;95.78
74310;BME280;62722;51.142;17.052;2022-12-07T01:38:50;99957.97;;;2.35;95.04
74310;BME280;62722;51.142;17.052;2022-12-07T01:41:19;99956.13;;;2.37;95.24
74310;BME280;62722;51.142;17.052;2022-12-07T01:44:08;99955.31;;;2.36;95.08
74310;BME280;62722;51.142;17.052;2022-12-07T01:46:36;99939.75;;;2.35;95.13
74310;BME280;62722;51.142;17.052;2022-12-07T01:49:04;99953.44;;;2.40;95.59
74310;BME280;62722;51.142;17.052;2022-12-07T01:51:37;99945.72;;;2.37;95.10
74310;BME280;62722;51.142;17.052;2022-12-07T01:54:06;99949.91;;;2.41;95.98
74310;BME280;62722;51.142;17.052;2022-12-07T01:56:33;99944.59;;;2.44;96.17
74310;BME280;62722;51.142;17.052;2022-12-07T01:59:04;99946.38;;;2.43;95.30
74310;BME280;62722;51.142;17.052;2022-12-07T02:01:31;99953.38;;;2.41;95.84
74310;BME280;62722;51.142;17.052;2022-12-07T02:03:59;99956.84;;;2.42;95.47
74310;BME280;62722;51.142;17.052;2022-12-07T02:06:26;99955.25;;;2.38;95.28
74310;BME280;62722;51.142;17.052;2022-12-07T02:08:55;99958.75;;;2.37;95.53
74310;BME280;62722;51.142;17.052;2022-12-07T02:11:22;99954.66;;;2.30;95.37
74310;BME280;62722;51.142;17.052;2022-12-07T02:13:49;99955.38;;;2.35;95.80
74310;BME280;62722;51.142;17.052;2022-12-07T02:16:27;99963.19;;;2.35;95.46
74310;BME280;62722;51.142;17.052;2022-12-07T02:19:29;99954.50;;;2.34;96.12
74310;BME280;62722;51.142;17.052;2022-12-07T02:22:14;99950.16;;;2.35;95.81
74310;BME280;62722;51.142;17.052;2022-12-07T02:24:53;99945.91;;;2.32;96.28
74310;BME280;62722;51.142;17.052;2022-12-07T02:27:43;99951.06;;;2.34;96.34
74310;BME280;62722;51.142;17.052;2022-12-07T02:30:15;99951.13;;;2.32;95.61
74310;BME280;62722;51.142;17.052;2022-12-07T02:32:51;99950.31;;;2.30;95.67
74310;BME280;62722;51.142;17.052;2022-12-07T02:35:25;99958.09;;;2.32;96.66
74310;BME280;62722;51.142;17.052;2022-12-07T02:38:01;99947.72;;;2.30;96.51
74310;BME280;62722;51.142;17.052;2022-12-07T02:40:35;99948.72;;;2.26;96.04
74310;BME280;62722;51.142;17.052;2022-12-07T02:43:10;99949.53;;;2.28;96.74
74310;BME280;62722;51.142;17.052;2022-12-07T02:45:41;99941.88;;;2.24;95.56
74310;BME280;62722;51.142;17.052;2022-12-07T02:48:11;99941.88;;;2.24;96.00
74310;BME280;62722;51.142;17.052;2022-12-07T02:50:44;99940.19;;;2.23;96.33
74310;BME280;62722;51.142;17.052;2022-12-07T02:53:34;99940.06;;;2.26;96.43
74310;BME280;62722;51.142;17.052;2022-12-07T02:56:10;99935.88;;;2.22;95.75
74310;BME280;62722;51.142;17.052;2022-12-07T02:58:52;99921.31;;;2.18;96.36
74310;BME280;62722;51.142;17.052;2022-12-07T03:01:31;99948.81;;;2.25;96.30
74310;BME280;62722;51.142;17.052;2022-12-07T03:04:13;99945.38;;;2.23;96.24
74310;BME280;62722;51.142;17.052;2022-12-07T03:06:50;99929.09;;;2.18;96.34
74310;BME280;62722;51.142;17.052;2022-12-07T03:09:24;99934.13;;;2.22;96.30
74310;BME280;62722;51.142;17.052;2022-12-07T03:12:01;99940.19;;;2.23;97.08
74310;BME280;62722;51.142;17.052;2022-12-07T03:14:45;99944.50;;;2.24;97.05
74310;BME280;62722;51.142;17.052;2022-12-07T03:17:18;99943.53;;;2.26;96.48
74310;BME280;62722;51.142;17.052;2022-12-07T03:19:48;99941.88;;;2.24;96.68
74310;BME280;62722;51.142;17.052;2022-12-07T03:22:18;99947.09;;;2.24;96.45
74310;BME280;62722;51.142;17.052;2022-12-07T03:24:48;99929.03;;;2.19;96.47
74310;BME280;62722;51.142;17.052;2022-12-07T03:27:20;99940.19;;;2.23;96.45
74310;BME280;62722;51.142;17.052;2022-12-07T03:29:52;99946.19;;;2.25;96.01
74310;BME280;62722;51.142;17.052;2022-12-07T03:32:25;99925.53;;;2.20;96.26
74310;BME280;62722;51.142;17.052;2022-12-07T03:34:58;99934.13;;;2.22;96.50
74310;BME280;62722;51.142;17.052;2022-12-07T03:37:32;99927.56;;;2.12;96.20
74310;BME280;62722;51.142;17.052;2022-12-07T03:40:05;99923.94;;;2.16;95.84
74310;BME280;62722;51.142;17.052;2022-12-07T03:42:34;99917.88;;;2.16;96.33
74310;BME280;62722;51.142;17.052;2022-12-07T03:45:03;99919.59;;;2.17;96.70
74310;BME280;62722;51.142;17.052;2022-12-07T03:47:34;99917.00;;;2.17;96.80
74310;BME280;62722;51.142;17.052;2022-12-07T03:50:10;99916.91;;;2.18;96.43
74310;BME280;62722;51.142;17.052;2022-12-07T03:52:40;99913.50;;;2.18;96.46
74310;BME280;62722;51.142;17.052;2022-12-07T03:55:14;99910.88;;;2.18;96.19
74310;BME280;62722;51.142;17.052;2022-12-07T03:57:44;99912.56;;;2.19;96.23
74310;BME280;62722;51.142;17.052;2022-12-07T04:00:16;99917.72;;;2.20;96.14
74310;BME280;62722;51.142;17.052;2022-12-07T04:02:46;99908.38;;;2.15;95.87
74310;BME280;62722;51.142;17.052;2022-12-07T04:05:14;99912.78;;;2.13;96.10
74310;BME280;62722;51.142;17.052;2022-12-07T04:07:41;99913.69;;;2.12;96.12
74310;BME280;62722;51.142;17.052;2022-12-07T04:10:09;99916.25;;;2.13;96.52
74310;BME280;62722;51.142;17.052;2022-12-07T04:12:37;99909.47;;;2.09;96.26
74310;BME280;62722;51.142;17.052;2022-12-07T04:15:06;99914.59;;;2.11;96.65
74310;BME280;62722;51.142;17.052;2022-12-07T04:17:33;99917.16;;;2.12;96.78
74310;BME280;62722;51.142;17.052;2022-12-07T04:20:02;99920.66;;;2.11;96.34
74310;BME280;62722;51.142;17.052;2022-12-07T04:22:29;99916.38;;;2.10;96.70
74310;BME280;62722;51.142;17.052;2022-12-07T04:24:57;99914.50;;;2.14;96.52
74310;BME280;62722;51.142;17.052;2022-12-07T04:27:24;99923.94;;;2.16;96.60
74310;BME280;62722;51.142;17.052;2022-12-07T04:29:51;99913.53;;;2.16;96.41
74310;BME280;62722;51.142;17.052;2022-12-07T04:32:18;99922.19;;;2.17;96.15
74310;BME280;62722;51.142;17.052;2022-12-07T04:34:45;99910.94;;;2.16;96.90
74310;BME280;62722;51.142;17.052;2022-12-07T04:37:14;99917.88;;;2.16;96.39
74310;BME280;62722;51.142;17.052;2022-12-07T04:39:41;99917.03;;;2.15;96.92
74310;BME280;62722;51.142;17.052;2022-12-07T04:42:10;99917.84;;;2.17;96.25
74310;BME280;62722;51.142;17.052;2022-12-07T04:44:38;99911.69;;;2.18;96.74
74310;BME280;62722;51.142;17.052;2022-12-07T04:47:05;99916.13;;;2.16;96.95
74310;BME280;62722;51.142;17.052;2022-12-07T04:49:33;99909.28;;;2.14;96.63
74310;BME280;62722;51.142;17.052;2022-12-07T04:52:00;99909.47;;;2.09;97.33
74310;BME280;62722;51.142;17.052;2022-12-07T04:54:28;99907.00;;;2.05;97.87
74310;BME280;62722;51.142;17.052;2022-12-07T04:56:56;99913.84;;;2.07;96.83
74310;BME280;62722;51.142;17.052;2022-12-07T04:59:23;99907.88;;;2.05;97.07
74310;BME280;62722;51.142;17.052;2022-12-07T05:01:50;99907.09;;;2.03;97.23
74310;BME280;62722;51.142;17.052;2022-12-07T05:04:17;99913.13;;;2.04;97.71
74310;BME280;62722;51.142;17.052;2022-12-07T05:06:44;99907.00;;;2.05;97.48
74310;BME280;62722;51.142;17.052;2022-12-07T05:09:12;99900.97;;;2.04;97.61
74310;BME280;62722;51.142;17.052;2022-12-07T05:11:40;99907.88;;;2.05;97.99
74310;BME280;62722;51.142;17.052;2022-12-07T05:14:12;99903.63;;;2.03;98.05
74310;BME280;62722;51.142;17.052;2022-12-07T05:16:40;99904.50;;;2.03;98.49
74310;BME280;62722;51.142;17.052;2022-12-07T05:19:07;99905.16;;;2.08;98.37
74310;BME280;62722;51.142;17.052;2022-12-07T05:21:35;99909.47;;;2.09;98.10
74310;BME280;62722;51.142;17.052;2022-12-07T05:24:02;99903.28;;;2.12;98.29
74310;BME280;62722;51.142;17.052;2022-12-07T05:26:30;99904.13;;;2.12;97.90
74310;BME280;62722;51.142;17.052;2022-12-07T05:28:59;99906.69;;;2.14;98.43
74310;BME280;62722;51.142;17.052;2022-12-07T05:31:26;99895.47;;;2.12;98.29
74310;BME280;62722;51.142;17.052;2022-12-07T05:33:54;99902.25;;;2.16;98.14
74310;BME280;62722;51.142;17.052;2022-12-07T05:36:21;99903.16;;;2.15;98.12
74310;BME280;62722;51.142;17.052;2022-12-07T05:38:49;99906.50;;;2.18;98.11
74310;BME280;62722;51.142;17.052;2022-12-07T05:41:18;99915.97;;;2.21;97.88
74310;BME280;62722;51.142;17.052;2022-12-07T05:44:04;99898.59;;;2.21;97.23
74310;BME280;62722;51.142;17.052;2022-12-07T05:46:32;99908.16;;;2.21;96.71
74310;BME280;62722;51.142;17.052;2022-12-07T05:49:00;99902.84;;;2.24;97.24
74310;BME280;62722;51.142;17.052;2022-12-07T05:51:27;99910.75;;;2.21;97.20
74310;BME280;62722;51.142;17.052;2022-12-07T05:53:54;99913.25;;;2.24;96.81
74310;BME280;62722;51.142;17.052;2022-12-07T05:56:21;99914.84;;;2.28;96.51
74310;BME280;62722;51.142;17.052;2022-12-07T05:58:49;99919.16;;;2.29;96.71
74310;BME280;62722;51.142;17.052;2022-12-07T06:01:34;99907.03;;;2.28;96.47
74310;BME280;62722;51.142;17.052;2022-12-07T06:04:02;99902.72;;;2.27;96.63
74310;BME280;62722;51.142;17.052;2022-12-07T06:06:29;99903.59;;;2.26;95.57
74310;BME280;62722;51.142;17.052;2022-12-07T06:08:56;99905.41;;;2.25;96.12
74310;BME280;62722;51.142;17.052;2022-12-07T06:11:23;99898.41;;;2.26;95.54
74310;BME280;62722;51.142;17.052;2022-12-07T06:14:08;99906.16;;;2.27;95.55
74310;BME280;62722;51.142;17.052;2022-12-07T06:16:36;99901.84;;;2.26;95.60
74310;BME280;62722;51.142;17.052;2022-12-07T06:19:04;99905.31;;;2.27;95.47
74310;BME280;62722;51.142;17.052;2022-12-07T06:21:31;99893.19;;;2.26;95.53
74310;BME280;62722;51.142;17.052;2022-12-07T06:23:58;99900.22;;;2.24;95.19
74310;BME280;62722;51.142;17.052;2022-12-07T06:26:25;99892.59;;;2.19;94.89
74310;BME280;62722;51.142;17.052;2022-12-07T06:28:52;99896.03;;;2.20;95.47
74310;BME280;62722;51.142;17.052;2022-12-07T06:31:20;99898.69;;;2.18;94.57
74310;BME280;62722;51.142;17.052;2022-12-07T06:33:48;99896.03;;;2.20;95.02
74310;BME280;62722;51.142;17.052;2022-12-07T06:36:15;99892.66;;;2.18;94.41
74310;BME280;62722;51.142;17.052;2022-12-07T06:38:43;99904.72;;;2.20;94.62
74310;BME280;62722;51.142;17.052;2022-12-07T06:41:10;99896.81;;;2.22;94.61
74310;BME280;62722;51.142;17.052;2022-12-07T06:43:37;99905.44;;;2.24;94.89
74310;BME280;62722;51.142;17.052;2022-12-07T06:46:04;99908.03;;;2.24;93.28
74310;BME280;62722;51.142;17.052;2022-12-07T06:48:31;99906.28;;;2.24;94.21
74310;BME280;62722;51.142;17.052;2022-12-07T06:51:00;99894.16;;;2.23;94.47
74310;BME280;62722;51.142;17.052;2022-12-07T06:53:27;99899.34;;;2.25;92.68
74310;BME280;62722;51.142;17.052;2022-12-07T06:55:54;99903.59;;;2.26;92.47
74310;BME280;62722;51.142;17.052;2022-12-07T06:58:22;99917.56;;;2.25;93.14
74310;BME280;62722;51.142;17.052;2022-12-07T07:00:49;99908.09;;;2.22;93.13
74310;BME280;62722;51.142;17.052;2022-12-07T07:03:16;99912.34;;;2.25;93.12
74310;BME280;62722;51.142;17.052;2022-12-07T07:05:44;99914.09;;;2.24;93.74
74310;BME280;62722;51.142;17.052;2022-12-07T07:08:13;99909.06;;;2.20;92.79
74310;BME280;62722;51.142;17.052;2022-12-07T07:10:41;99911.53;;;2.23;92.86
74310;BME280;62722;51.142;17.052;2022-12-07T07:13:08;99906.28;;;2.24;91.63
74310;BME280;62722;51.142;17.052;2022-12-07T07:15:38;99901.25;;;2.20;92.70
74310;BME280;62722;51.142;17.052;2022-12-07T07:18:05;99908.81;;;2.26;92.08
74310;BME280;62722;51.142;17.052;2022-12-07T07:20:32;99902.97;;;2.21;92.49
74310;BME280;62722;51.142;17.052;2022-12-07T07:23:00;99899.41;;;2.22;91.74
74310;BME280;62722;51.142;17.052;2022-12-07T07:25:28;99901.94;;;2.25;90.91
74310;BME280;62722;51.142;17.052;2022-12-07T07:27:56;99897.59;;;2.25;91.51
74310;BME280;62722;51.142;17.052;2022-12-07T07:30:23;99914.03;;;2.26;90.94
74310;BME280;62722;51.142;17.052;2022-12-07T07:32:50;99901.00;;;2.26;90.94
74310;BME280;62722;51.142;17.052;2022-12-07T07:35:18;99904.28;;;2.31;91.58
74310;BME280;62722;51.142;17.052;2022-12-07T07:37:45;99899.22;;;2.28;90.54
74310;BME280;62722;51.142;17.052;2022-12-07T07:40:12;99894.78;;;2.30;91.02
74310;BME280;62722;51.142;17.052;2022-12-07T07:42:41;99899.66;;;2.39;91.20
74310;BME280;62722;51.142;17.052;2022-12-07T07:45:08;99904.88;;;2.39;90.76
74310;BME280;62722;51.142;17.052;2022-12-07T07:47:36;99906.31;;;2.46;90.92
74310;BME280;62722;51.142;17.052;2022-12-07T07:50:04;99906.44;;;2.43;89.69
74310;BME280;62722;51.142;17.052;2022-12-07T07:52:32;99906.38;;;2.44;88.95
74310;BME280;62722;51.142;17.052;2022-12-07T07:54:59;99900.22;;;2.47;90.37
74310;BME280;62722;51.142;17.052;2022-12-07T07:57:26;99904.56;;;2.47;90.10
74310;BME280;62722;51.142;17.052;2022-12-07T07:59:55;99898.75;;;2.40;90.08
74310;BME280;62722;51.142;17.052;2022-12-07T08:02:23;99898.69;;;2.41;89.74
74310;BME280;62722;51.142;17.052;2022-12-07T08:04:50;99902.91;;;2.44;90.02
74310;BME280;62722;51.142;17.052;2022-12-07T08:07:17;99897.69;;;2.44;89.36
74310;BME280;62722;51.142;17.052;2022-12-07T08:09:44;99910.81;;;2.42;89.25
74310;BME280;62722;51.142;17.052;2022-12-07T08:12:11;99911.78;;;2.40;89.84
74310;BME280;62722;51.142;17.052;2022-12-07T08:14:38;99911.88;;;2.37;90.42
74310;BME280;62722;51.142;17.052;2022-12-07T08:17:08;99908.25;;;2.41;90.68
74310;BME280;62722;51.142;17.052;2022-12-07T08:19:35;99918.63;;;2.42;89.66
74310;BME280;62722;51.142;17.052;2022-12-07T08:22:02;99911.69;;;2.41;90.49
74310;BME280;62722;51.142;17.052;2022-12-07T08:24:29;99912.59;;;2.40;90.86
74310;BME280;62722;51.142;17.052;2022-12-07T08:26:57;99909.91;;;2.43;90.44
74310;BME280;62722;51.142;17.052;2022-12-07T08:29:24;99899.53;;;2.42;90.00
74310;BME280;62722;51.142;17.052;2022-12-07T08:31:51;99900.44;;;2.41;90.74
74310;BME280;62722;51.142;17.052;2022-12-07T08:34:19;99898.47;;;2.48;89.66
74310;BME280;62722;51.142;17.052;2022-12-07T08:36:47;99901.88;;;2.48;90.07
74310;BME280;62722;51.142;17.052;2022-12-07T08:39:14;99898.34;;;2.51;90.96
74310;BME280;62722;51.142;17.052;2022-12-07T08:41:41;99893.97;;;2.51;89.08
74310;BME280;62722;51.142;17.052;2022-12-07T08:44:08;99904.16;;;2.57;90.11
74310;BME280;62722;51.142;17.052;2022-12-07T08:46:37;99897.25;;;2.56;89.65
74310;BME280;62722;51.142;17.052;2022-12-07T08:49:07;99891.31;;;2.53;90.62
74310;BME280;62722;51.142;17.052;2022-12-07T08:51:39;99894.88;;;2.50;89.41
74310;BME280;62722;51.142;17.052;2022-12-07T08:54:08;99895.66;;;2.52;89.10
74310;BME280;62722;51.142;17.052;2022-12-07T08:56:36;99888.66;;;2.54;89.55
74310;BME280;62722;51.142;17.052;2022-12-07T08:59:04;99885.13;;;2.55;87.83
74310;BME280;62722;51.142;17.052;2022-12-07T09:01:32;99888.41;;;2.60;89.35
74310;BME280;62722;51.142;17.052;2022-12-07T09:03:59;99886.53;;;2.64;86.94
74310;BME280;62722;51.142;17.052;2022-12-07T09:06:26;99882.94;;;2.66;87.11
74310;BME280;62722;51.142;17.052;2022-12-07T09:08:58;99882.84;;;2.69;86.92
74310;BME280;62722;51.142;17.052;2022-12-07T09:11:27;99880.88;;;2.74;87.16
74310;BME280;62722;51.142;17.052;2022-12-07T09:13:54;99882.47;;;2.78;86.88
74310;BME280;62722;51.142;17.052;2022-12-07T09:16:22;99878.97;;;2.79;85.90
74310;BME280;62722;51.142;17.052;2022-12-07T09:18:49;99875.19;;;2.86;86.16
74310;BME280;62722;51.142;17.052;2022-12-07T09:21:16;99864.50;;;2.92;85.86
74310;BME280;62722;51.142;17.052;2022-12-07T09:23:43;99865.13;;;2.99;84.50
74310;BME280;62722;51.142;17.052;2022-12-07T09:26:12;99869.09;;;3.08;85.12
74310;BME280;62722;51.142;17.052;2022-12-07T09:28:39;99860.09;;;3.15;85.47
74310;BME280;62722;51.142;17.052;2022-12-07T09:31:06;99854.53;;;3.24;85.19
74310;BME280;62722;51.142;17.052;2022-12-07T09:33:33;99850.78;;;3.29;85.12
74310;BME280;62722;51.142;17.052;2022-12-07T09:36:00;99841.94;;;3.33;84.84
74310;BME280;62722;51.142;17.052;2022-12-07T09:38:28;99837.56;;;3.34;82.67
74310;BME280;62722;51.142;17.052;2022-12-07T09:40:55;99838.38;;;3.36;82.63
74310;BME280;62722;51.142;17.052;2022-12-07T09:43:25;99839.19;;;3.36;84.58
74310;BME280;62722;51.142;17.052;2022-12-07T09:45:54;99836.56;;;3.36;81.66
74310;BME280;62722;51.142;17.052;2022-12-07T09:48:25;99830.44;;;3.37;82.12
74310;BME280;62722;51.142;17.052;2022-12-07T09:50:58;99824.53;;;3.34;80.52
74310;BME280;62722;51.142;17.052;2022-12-07T09:53:27;99828.75;;;3.36;83.52
74310;BME280;62722;51.142;17.052;2022-12-07T09:55:56;99818.41;;;3.35;81.12
74310;BME280;62722;51.142;17.052;2022-12-07T09:58:26;99820.91;;;3.36;81.60
74310;BME280;62722;51.142;17.052;2022-12-07T10:00:56;99820.72;;;3.41;81.42
74310;BME280;62722;51.142;17.052;2022-12-07T10:03:25;99823.09;;;3.47;82.82
74310;BME280;62722;51.142;17.052;2022-12-07T10:05:54;99813.16;;;3.55;82.82
74310;BME280;62722;51.142;17.052;2022-12-07T10:08:22;99811.03;;;3.63;81.01
74310;BME280;62722;51.142;17.052;2022-12-07T10:10:52;99799.56;;;3.67;80.78
74310;BME280;62722;51.142;17.052;2022-12-07T10:13:21;99792.03;;;3.61;78.74
74310;BME280;62722;51.142;17.052;2022-12-07T10:15:54;99793.50;;;3.67;80.41
74310;BME280;62722;51.142;17.052;2022-12-07T10:18:28;99788.91;;;3.72;79.06
74310;BME280;62722;51.142;17.052;2022-12-07T10:21:02;99780.44;;;3.67;79.09
74310;BME280;62722;51.142;17.052;2022-12-07T10:23:30;99771.84;;;3.65;78.38
74310;BME280;62722;51.142;17.052;2022-12-07T10:25:57;99778.03;;;3.62;77.33
74310;BME280;62722;51.142;17.052;2022-12-07T10:28:33;99784.03;;;3.64;79.63
74310;BME280;62722;51.142;17.052;2022-12-07T10:31:15;99778.88;;;3.63;79.28
74310;BME280;62722;51.142;17.052;2022-12-07T10:33:50;99779.81;;;3.62;78.61
74310;BME280;62722;51.142;17.052;2022-12-07T10:36:21;99788.47;;;3.62;79.28
74310;BME280;62722;51.142;17.052;2022-12-07T10:38:50;99786.28;;;3.53;80.76
74310;BME280;62722;51.142;17.052;2022-12-07T10:41:18;99788.25;;;3.48;81.99
74310;BME280;62722;51.142;17.052;2022-12-07T10:43:53;99785.13;;;3.40;83.87
74310;BME280;62722;51.142;17.052;2022-12-07T10:46:53;99788.72;;;3.37;85.65
74310;BME280;62722;51.142;17.052;2022-12-07T10:49:46;99789.56;;;3.38;85.38
74310;BME280;62722;51.142;17.052;2022-12-07T10:52:28;99793.03;;;3.38;86.04
74310;BME280;62722;51.142;17.052;2022-12-07T10:55:08;99788.72;;;3.37;85.36
74310;BME280;62722;51.142;17.052;2022-12-07T10:57:51;99782.78;;;3.34;84.79
74310;BME280;62722;51.142;17.052;2022-12-07T11:00:23;99792.94;;;3.40;85.50
74310;BME280;62722;51.142;17.052;2022-12-07T11:03:14;99785.06;;;3.41;84.58
74310;BME280;62722;51.142;17.052;2022-12-07T11:05:53;99790.41;;;3.38;83.57
74310;BME280;62722;51.142;17.052;2022-12-07T11:08:33;99775.75;;;3.36;85.29
74310;BME280;62722;51.142;17.052;2022-12-07T11:11:09;99785.53;;;3.31;85.53
74310;BME280;62722;51.142;17.052;2022-12-07T11:13:41;99778.91;;;3.24;85.53
74310;BME280;62722;51.142;17.052;2022-12-07T11:16:34;99780.59;;;3.25;87.83
74310;BME280;62722;51.142;17.052;2022-12-07T11:19:33;99775.44;;;3.23;87.65
74310;BME280;62722;51.142;17.052;2022-12-07T11:22:12;99768.66;;;3.19;87.68
74310;BME280;62722;51.142;17.052;2022-12-07T11:24:49;99771.91;;;3.24;87.92
74310;BME280;62722;51.142;17.052;2022-12-07T11:27:27;99776.00;;;3.30;87.90
74310;BME280;62722;51.142;17.052;2022-12-07T11:30:12;99764.63;;;3.32;88.24
74310;BME280;62722;51.142;17.052;2022-12-07T11:32:49;99774.91;;;3.35;87.19
74310;BME280;62722;51.142;17.052;2022-12-07T11:35:26;99763.63;;;3.35;87.29
74310;BME280;62722;51.142;17.052;2022-12-07T11:37:59;99759.41;;;3.32;87.58
74310;BME280;62722;51.142;17.052;2022-12-07T11:40:31;99758.41;;;3.35;87.93
74310;BME280;62722;51.142;17.052;2022-12-07T11:43:05;99757.56;;;3.34;87.61
74310;BME280;62722;51.142;17.052;2022-12-07T11:45:35;99759.31;;;3.34;86.96
74310;BME280;62722;51.142;17.052;2022-12-07T11:48:10;99759.41;;;3.32;86.77
74310;BME280;62722;51.142;17.052;2022-12-07T11:50:43;99753.06;;;3.38;88.07
74310;BME280;62722;51.142;17.052;2022-12-07T11:53:16;99754.75;;;3.39;87.41
74310;BME280;62722;51.142;17.052;2022-12-07T11:55:49;99760.72;;;3.41;87.89
74310;BME280;62722;51.142;17.052;2022-12-07T11:58:33;99747.78;;;3.39;86.93
74310;BME280;62722;51.142;17.052;2022-12-07T12:01:12;99759.81;;;3.42;87.00
74310;BME280;62722;51.142;17.052;2022-12-07T12:03:44;99758.06;;;3.42;88.34
74310;BME280;62722;51.142;17.052;2022-12-07T12:06:13;99756.31;;;3.43;88.53
74310;BME280;62722;51.142;17.052;2022-12-07T12:08:45;99756.56;;;3.37;87.33
74310;BME280;62722;51.142;17.052;2022-12-07T12:11:24;99748.69;;;3.38;86.95
74310;BME280;62722;51.142;17.052;2022-12-07T12:14:17;99758.13;;;3.41;86.93
74310;BME280;62722;51.142;17.052;2022-12-07T12:17:03;99761.63;;;3.40;87.16
74310;BME280;62722;51.142;17.052;2022-12-07T12:19:38;99752.84;;;3.42;87.55
74310;BME280;62722;51.142;17.052;2022-12-07T12:22:15;99755.31;;;3.46;87.75
74310;BME280;62722;51.142;17.052;2022-12-07T12:24:44;99756.03;;;3.49;87.90
74310;BME280;62722;51.142;17.052;2022-12-07T12:27:21;99753.41;;;3.49;85.34
74310;BME280;62722;51.142;17.052;2022-12-07T12:29:53;99749.69;;;3.55;85.86
74310;BME280;62722;51.142;17.052;2022-12-07T12:32:23;99754.78;;;3.58;86.35
74310;BME280;62722;51.142;17.052;2022-12-07T12:35:03;99741.66;;;3.59;85.03
74310;BME280;62722;51.142;17.052;2022-12-07T12:37:49;99739.69;;;3.64;84.79
74310;BME280;62722;51.142;17.052;2022-12-07T12:40:41;99740.44;;;3.66;85.08
74310;BME280;62722;51.142;17.052;2022-12-07T12:43:45;99737.03;;;3.66;84.35
74310;BME280;62722;51.142;17.052;2022-12-07T12:46:47;99743.00;;;3.68;84.15
74310;BME280;62722;51.142;17.052;2022-12-07T12:49:33;99731.50;;;3.72;84.61
74310;BME280;62722;51.142;17.052;2022-12-07T12:52:01;99728.94;;;3.70;85.34
74310;BME280;62722;51.142;17.052;2022-12-07T12:55:00;99736.03;;;3.68;84.08
74310;BME280;62722;51.142;17.052;2022-12-07T12:57:30;99732.63;;;3.66;85.15
74310;BME280;62722;51.142;17.052;2022-12-07T12:59:58;99731.84;;;3.64;84.04
74310;BME280;62722;51.142;17.052;2022-12-07T13:02:27;99733.63;;;3.64;83.97
74310;BME280;62722;51.142;17.052;2022-12-07T13:04:58;99734.47;;;3.64;84.95
74310;BME280;62722;51.142;17.052;2022-12-07T13:07:54;99733.63;;;3.64;85.08
74310;BME280;62722;51.142;17.052;2022-12-07T13:10:32;99739.69;;;3.64;85.30
74310;BME280;62722;51.142;17.052;2022-12-07T13:13:02;99745.81;;;3.63;84.75
74310;BME280;62722;51.142;17.052;2022-12-07T13:15:38;99743.19;;;3.63;85.05
74310;BME280;62722;51.142;17.052;2022-12-07T13:18:23;99731.91;;;3.63;84.73
74310;BME280;62722;51.142;17.052;2022-12-07T13:20:54;99740.69;;;3.62;86.43
74310;BME280;62722;51.142;17.052;2022-12-07T13:23:33;99739.13;;;3.58;84.86